Terminal Aerodrome Forecast
Issued by NWS Lake Charles, LA

Home | Current Version | Previous Version | Text Only | Print | Product List | Glossary On
Versions: 1 2 3 4 5 6 7 8 9 10 11 12 13 14 15 16 17 18 19
791
FTUS44 KLCH 231720
TAFLFT
TAF
KLFT 231720Z 2318/2418 15006KT P6SM FEW035
     FM232100 09008KT P6SM SCT025
     FM240600 15009KT 6SM BR BKN015
     FM241500 15013G22KT P6SM OVC025=

USA.gov is the U.S. government's official web portal to all federal, state and local government web resources and services.